Pagrindinis puslapis
METAR-TAF:

METAR-TAF

Oro uostai :

Krasnodaras, Rusija

platuma: 45-02N, ilguma: 039-09E, Aukštis: 33 m

Dabartinis oras

Ataskaita buvo paskelbta 34 minutes, ne 18:00 UTC
Vėjas 8 kt iš Šiaurės
Temperatūra 18°C
Drėgmė 56%
Slėgis 1020 hPa
Matomumas 10 km arba daugiau
nėra debesų žemiau 1500 m ir nėra kamuolinių lietaus debesų

METAR: URKK 151800Z 35004MPS CAVOK 18/09 Q1020 R23L/CLRD70 NOSIG RMK QFE761

Laikas: 21:34 (18:34 UTC)

Prognozė

Ataskaita buvo paskelbta 1 valandą ir 40 minutes, ne 16:54 UTC
Prognozė galioja nuo 15 metu 18 UTC su 16 metu 18 UTC
Vėjas 6 kt iš Šiaurės su gūsio iki 16 kt
Matomumas 10 km arba daugiau
Išsisklaidę debesys ne aukštis 4000 ft
Laikinai
nuo 15 metu 18 UTC su 16 metu 12 UTC
Vėjas 6 kt iš Šiaurės Rytų su gūsio iki 16 kt

TAF: URKK 151654Z 1518/1618 35003G08MPS 9999 SCT040 TEMPO 1518/1612 04003G08MPS

Orai ataskaitas ir orų prognozės (METAR, TAF).

turimą stotys yra geltonos ir raudonos taškus žemėlapyje.

Perkelti pele per norėdami pamatyti stoties vardą.

Tada spustelėkite, norėdami matyti oro stebėjimo ir prognozės.

Norėdami pakeisti žemėlapį: spustelėkite ant žalios mygtukų su juodo kryžiaus žemyn,; žalią mygtuką su brūkšneliu, jei norite nutolinti; arba žalių rodyklių gretimoms žemėlapius.


METAR-TAF: